Airport View

Enter AWOS ICAO identifier for current METAR.

ex. KFNL

KSTL 261151Z 19003KT 9SM FEW200 BKN250 23/20 A3008 RMK AO2 SLP172 T02330200 10250 20228 53006

26 Jun 2019 12:30

Phone: 314-890-4790

Other Area AWOS: KSET - KSUS - KCPS - KALN

TAF KSTL 261120Z 2612/2718 VRB04KT P6SM FEW250 FM261800 21006KT P6SM SCT040 FM270200 VRB04KT P6SM SCT250